Latest Coastal Weather Observations for Mackay

IDQ60701

Issued at 12:01 am EST Thursday 19 January 2017 (issued every 10 minutes, with the page automatically refreshed every 10 minutes)

About coastal observations | Map of coastal stations | Coastal observations for QLD | Marine services | Other Formats
Station Details ID: 033119 Name: MACKAY M.O Lat: -21.12 Lon: 149.22 Height: 30.26 m
Data from the previous 72 hours. | See also: Recent months at Mackay
Date/Time
EST
Temp
°C
Wind Pressure Rain since
9am
mm
Weather Cloud Vis
km
Sea
Height
m
Swell
Dir  Spd
kts
Gust
kts
hPa Trend Height
m
Period
s
Dir
18/11:30pm 26.1 NE 4 6 1011.5 - 0.0 - Partly cloudy - - - - -
18/11:00pm 26.1 NNE 4 6 1011.7 - 0.0 - Partly cloudy - - - - -
18/10:30pm 26.0 NE 3 5 1011.8 - 0.0 - Partly cloudy - - - - -
18/10:00pm 25.9 NE 4 6 1011.8 - 0.0 - Partly cloudy - - - - -
18/09:30pm 26.1 NE 4 7 1011.6 - 0.0 - Partly cloudy - - - - -
18/09:00pm 26.1 NE 4 6 1011.4 F 0.0 - Mostly clear - - - - -
18/08:30pm 26.6 NE 5 7 1011.2 - 0.0 - Partly cloudy - - - - -
18/08:00pm 26.4 ENE 4 7 1011.1 - 0.0 - - - - - - -
18/07:30pm 27.1 E 8 11 1010.7 - 0.0 - Partly cloudy - - - - -
18/07:00pm 27.0 ENE 8 11 1010.6 - 0.0 - - - - - - -
18/06:30pm 27.6 E 8 11 1010.4 - 0.0 - Partly cloudy - - - - -
18/06:00pm 28.3 E 8 12 1010.4 F 0.0 - - - - - - -
18/05:30pm 28.8 E 8 11 1010.2 - 0.0 - - - - - - -
18/05:00pm 29.0 ENE 8 12 1010.1 - 0.0 - - - - - - -
18/04:30pm 29.5 ENE 8 13 1010.1 - 0.0 - - - - - - -
18/04:00pm 30.0 E 9 12 1010.2 - 0.0 - - - - - - -
18/03:30pm 29.9 E 8 11 1010.4 - 0.0 - - - - - - -
18/03:00pm 30.1 E 8 12 1010.8 F 0.0 - - - - - - -
18/02:30pm 30.0 ENE 9 12 1011.1 - 0.0 - - - - - - -
18/02:00pm 30.3 E 8 11 1011.5 - 0.0 - - - - - - -
18/01:30pm 30.4 ESE 6 10 1012.0 - 0.0 - - - - - - -
18/01:00pm 30.7 E 7 11 1012.4 - 0.0 - - - - - - -
18/12:30pm 29.8 E 8 11 1012.5 - 0.0 - - - - - - -
18/12:00pm 29.5 E 8 11 1012.6 F 0.0 - Mostly clear - - - - -
18/11:30am 30.1 ESE 7 12 1013.0 - 0.0 - - - - - - -
18/11:00am 30.1 ESE 7 11 1013.4 - 0.0 - - - - - - -
18/10:30am 30.6 ESE 6 10 1013.7 - 0.0 - Partly cloudy - - - - -
18/10:00am 29.4 SE 7 9 1013.9 - 0.0 - Partly cloudy - - - - -
18/09:30am 29.7 SSE 5 12 1014.1 - 0.0 - Partly cloudy - - - - -
18/09:00am 28.7 S 5 8 1014.1 S 0.0 - Mostly cloudy - - - - -
18/08:30am 27.7 SSW 7 9 1014.2 - 0.0 - Partly cloudy - - - - -
18/08:00am 26.2 SSW 8 10 1014.0 - 0.0 - Partly cloudy - - - - -
18/07:30am 25.6 SSW 6 8 1013.9 - 0.0 - Partly cloudy - - - - -
18/07:00am 24.7 SW 6 7 1013.6 - 0.0 - Partly cloudy - - - - -
18/06:30am 24.3 SW 6 7 1013.4 - 0.0 - Partly cloudy - - - - -
18/06:00am 24.1 SW 5 8 1013.0 R 0.0 - Cloudy - - - - -
18/05:30am 24.2 WSW 6 8 1012.6 - 0.0 - Partly cloudy - - - - -
18/05:00am 24.9 SW 5 7 1012.1 - 0.0 - Partly cloudy - - - - -
18/04:30am 26.2 SE 5 8 1011.9 - 0.0 - Partly cloudy - - - - -
18/04:00am 26.2 SE 6 9 1011.7 - 0.0 - Partly cloudy - - - - -
18/03:30am 26.5 SE 6 11 1011.5 - 0.0 - Partly cloudy - - - - -
18/03:00am 26.6 ESE 6 10 1011.6 - 0.0 - Mostly clear - - - - -
18/02:30am 26.7 ESE 7 10 1011.8 - 0.0 - Partly cloudy - - - - -
18/02:00am 26.9 ESE 6 10 1012.0 - 0.0 - Partly cloudy - - - - -
18/01:30am 26.8 E 6 10 1012.4 - 0.0 - Partly cloudy - - - - -
18/01:00am 27.0 ESE 7 11 1012.8 - 0.0 - Partly cloudy - - - - -
18/12:30am 27.0 E 7 12 1013.2 - 0.0 - Partly cloudy - - - - -
18/12:00am 27.1 ESE 6 10 1013.5 - 0.0 - Mostly clear - - - - -
 
Date/Time
EST
Temp
°C
Wind Pressure Rain since
9am
mm
Weather Cloud Vis
km
Sea
Height
m
Swell
Dir  Spd
kts
Gust
kts
hPa Trend Height
m
Period
s
Dir
17/11:30pm 27.1 ESE 6 9 1013.9 - 0.0 - - - - - - -
17/11:00pm 27.3 ESE 7 11 1014.2 - 0.0 - - - - - - -
17/10:30pm 27.3 E 8 11 1014.2 - 0.0 - - - - - - -
17/10:00pm 27.3 E 8 12 1014.2 - 0.0 - - - - - - -
17/09:30pm 27.5 ESE 7 13 1014.2 - 0.0 - Partly cloudy - - - - -
17/09:00pm 26.9 ESE 6 11 1014.1 F 0.0 - Partly cloudy - - - - -
17/08:30pm 27.4 E 7 11 1013.8 - 0.0 - - - - - - -
17/08:00pm 27.5 E 6 9 1013.6 - 0.0 - Partly cloudy - - - - -
17/07:30pm 27.6 ESE 7 10 1013.6 - 0.0 - Partly cloudy - - - - -
17/07:00pm 27.7 ESE 6 11 1013.3 - 0.0 - Partly cloudy - - - - -
17/06:30pm 27.9 ESE 7 11 1013.1 - 0.0 - Partly cloudy - - - - -
17/06:00pm 28.3 E 8 12 1012.8 R 0.0 - Mostly clear - - - - -
17/05:30pm 28.7 ESE 7 11 1012.5 - 0.0 - - - - - - -
17/05:00pm 29.0 ESE 7 11 1012.2 - 0.0 - Partly cloudy - - - - -
17/04:30pm 29.3 ESE 8 12 1012.1 - 0.0 - Partly cloudy - - - - -
17/04:00pm 29.6 ESE 7 12 1012.1 - 0.0 - Partly cloudy - - - - -
17/03:30pm 29.6 ESE 7 12 1012.2 - 0.0 - - - - - - -
17/03:00pm 29.8 ESE 8 13 1012.4 F 0.0 - Mostly clear - - - - -
17/02:30pm 29.8 ESE 7 12 1012.6 - 0.0 - Partly cloudy - - - - -
17/02:00pm 29.7 ESE 8 12 1012.8 - 0.0 - - - - - - -
17/01:30pm 29.8 E 8 13 1013.2 - 0.0 - - - - - - -
17/01:00pm 30.0 ESE 7 12 1013.6 - 0.0 - - - - - - -
17/12:30pm 29.8 ESE 7 11 1013.8 - 0.0 - - - - - - -
17/12:00pm 29.8 ESE 8 12 1014.0 R 0.0 - Mostly clear - - - - -
17/11:30am 30.1 ESE 6 10 1014.3 - 0.0 - - - - - - -
17/11:00am 30.2 SE 7 12 1014.6 - 0.0 - Partly cloudy - - - - -
17/10:30am 29.1 SE 8 13 1014.6 - 0.0 - Partly cloudy - - - - -
17/10:00am 28.8 SE 6 10 1014.7 - 0.0 - Partly cloudy - - - - -
17/09:30am 30.0 ESE 7 10 1014.6 - 0.0 - Partly cloudy - - - - -
17/09:00am 29.2 ESE 7 11 1014.4 S 1.6 Rain Mostly clear - - - - -
17/08:30am 29.2 ESE 5 9 1014.3 - 1.4 - Partly cloudy - - - - -
17/08:00am 28.6 ESE 6 9 1014.1 - 1.4 - Partly cloudy - - - - -
17/07:30am 28.6 ESE 6 9 1014.0 - 1.4 - Partly cloudy - - - - -
17/07:00am 28.3 ESE 7 11 1013.8 - 1.4 - Partly cloudy - - - - -
17/06:30am 27.7 ESE 7 10 1013.5 - 1.4 - Partly cloudy - - - - -
17/06:00am 27.0 ESE 7 11 1013.3 R 1.4 - Cloudy - - - - -
17/05:30am 27.0 ESE 7 13 1012.8 - 1.4 - Partly cloudy - - - - -
17/05:00am 26.9 ESE 8 15 1012.4 - 1.4 - Partly cloudy - - - - -
17/04:30am 26.5 ESE 7 14 1011.9 - 1.4 - Partly cloudy - - - - -
17/04:00am 27.0 E 9 14 1011.7 - 1.4 - Partly cloudy - - - - -
17/03:30am 27.1 E 10 14 1011.5 - 1.4 - Partly cloudy - - - - -
17/03:00am 27.0 E 10 14 1011.5 - 1.4 - Cloudy - - - - -
17/02:30am 27.0 E 10 15 1011.6 - 1.4 - Partly cloudy - - - - -
17/02:00am 26.9 E 9 13 1011.7 - 1.4 - Partly cloudy - - - - -
17/01:30am 26.9 E 10 14 1012.0 - 1.4 - Partly cloudy - - - - -
17/01:00am 26.6 E 11 15 1012.2 - 1.4 - Partly cloudy - - - - -
17/12:30am 26.3 ENE 8 14 1012.3 - 1.4 - Partly cloudy - - - - -
17/12:00am 25.6 ENE 8 15 1012.5 - 1.4 Recent precip. Partly cloudy - - - - -
 
Date/Time
EST
Temp
°C
Wind Pressure Rain since
9am
mm
Weather Cloud Vis
km
Sea
Height
m
Swell
Dir  Spd
kts
Gust
kts
hPa Trend Height
m
Period
s
Dir
16/11:30pm 25.0 NNE 8 16 1012.8 - 1.4 - Partly cloudy - - - - -
16/11:00pm 27.3 ENE 9 16 1012.7 - 0.0 - Partly cloudy - - - - -
16/10:30pm 27.1 NE 8 13 1012.8 - 0.0 - Partly cloudy - - - - -
16/10:00pm 27.1 NE 7 12 1012.6 - 0.0 - - - - - - -
16/09:30pm 27.2 NE 9 15 1012.5 - 0.0 - Partly cloudy - - - - -
16/09:00pm 27.0 NE 7 13 1012.3 S 0.0 - Partly cloudy - - - - -
16/08:30pm 26.8 ENE 8 14 1012.2 - 0.0 - Partly cloudy - - - - -
16/08:00pm 26.6 ENE 10 20 1011.8 - 0.0 - Partly cloudy - - - - -
16/07:30pm 27.1 ENE 7 13 1011.7 - 0.0 - - - - - - -
16/07:00pm 27.4 ENE 9 14 1011.4 - 0.0 - Partly cloudy - - - - -
16/06:30pm 27.6 ENE 10 15 1011.0 - 0.0 - - - - - - -
16/06:00pm 27.8 E 11 17 1010.7 R 0.0 - Mostly clear - - - - -
16/05:30pm 29.2 ENE 8 14 1010.5 - 0.0 - Partly cloudy - - - - -
16/05:00pm 29.5 ENE 8 13 1010.1 - 0.0 - - - - - - -
16/04:30pm 30.2 ENE 9 13 1010.0 - 0.0 - Partly cloudy - - - - -
16/04:00pm 30.0 E 9 12 1010.0 - 0.0 - Partly cloudy - - - - -
16/03:30pm 30.2 ENE 9 13 1009.8 - 0.0 - - - - - - -
16/03:00pm 30.8 ENE 7 13 1009.6 R 0.0 - Mostly clear - - - - -
16/02:30pm 29.8 E 9 12 1009.8 - 0.0 - - - - - - -
16/02:00pm 30.4 NE 6 9 1009.9 - 0.0 - - - - - - -
16/01:30pm 31.7 NE 6 10 1010.1 - 0.0 - Partly cloudy - - - - -
16/01:00pm 31.4 ENE 5 9 1010.3 - 0.0 - - - - - - -
16/12:30pm 31.8 NNE 7 11 1010.4 - 0.0 - - - - - - -
16/12:00pm 31.6 NE 5 9 1010.5 R 0.0 - - - - - - -
16/11:30am 31.6 NNE 6 10 1010.7 - 0.0 - Cloudy - - - - -
16/11:00am 32.2 NE 7 11 1011.0 - 0.0 - Partly cloudy - - - - -
16/10:30am 31.9 NE 7 10 1011.1 - 0.0 - - - - - - -
16/10:00am 31.8 NE 6 11 1011.1 - 0.0 - Partly cloudy - - - - -
16/09:30am 31.4 NNE 7 11 1010.9 - 0.0 - Partly cloudy - - - - -
16/09:00am 30.4 ENE 5 9 1010.9 R 0.0 - - - - - - -
16/08:30am 29.6 ESE 3 6 1010.6 - 0.0 - Partly cloudy - - - - -
16/08:00am 29.6 SSE 2 5 1010.5 - 0.0 - Partly cloudy - - - - -
16/07:30am 28.1 SW 3 5 1010.3 - 0.0 - Partly cloudy - - - - -
16/07:00am 27.3 SW 4 5 1009.9 - 0.0 - Partly cloudy - - - - -
16/06:30am 26.6 W 4 6 1009.5 - 0.0 - Partly cloudy - - - - -
16/06:00am 26.0 NNW 2 4 1009.4 R 0.0 - Mostly clear - - - - -
16/05:30am 25.7 CALM 0 0 1009.0 - 0.0 - Partly cloudy - - - - -
16/05:00am 25.7 WNW 3 5 1008.5 - 0.0 - - - - - - -
16/04:30am 25.7 W 2 4 1008.3 - 0.0 - - - - - - -
16/04:00am 25.7 CALM 0 1 1008.2 - 0.0 - Partly cloudy - - - - -
16/03:30am 25.9 WNW 3 5 1008.0 - 0.0 - - - - - - -
16/03:00am 26.0 NW 4 6 1007.8 - 0.0 - - - - - - -
16/02:30am 26.5 NNW 6 8 1007.9 - 0.0 - Partly cloudy - - - - -
16/02:00am 26.7 N 5 7 1008.2 - 0.0 - Partly cloudy - - - - -
16/01:30am 26.9 N 5 8 1008.3 - 0.0 - Partly cloudy - - - - -
16/01:00am 26.9 N 6 9 1008.3 - 0.0 - Partly cloudy - - - - -
16/12:30am 26.8 N 6 9 1008.6 - 0.0 - Partly cloudy - - - - -

Other Formats:

Comma delimited format used in spreadsheet applications
http://www.bom.gov.au/fwo/IDQ60701/IDQ60701.94367.axf

JavaScript Object Notation format (JSON) in row-major order
http://www.bom.gov.au/fwo/IDQ60701/IDQ60701.94367.json